Etusivu
METAR-TAF:

METAR-TAF

Lentoasemat :

Denison Municipal Airport

Denison, Iowa, Yhdysvallat

Leveyspiiri: 41-59N, Pituuspiiri: 095-23W, korkeus merenpinnasta: 388 m

Tämänhetkinen sää

Tämä raportti tehtiin 15 minuuttia sitten, kello 05.35 UTC
Tuuli 3 kn lounaasta
Lämpötila -2°C
Kosteus 100%
Ilmanpaine 1016 hPa
Näkyvyys: 4.8 km
Pilvistä 400 ft:n korkeudessa
utua

METAR: KDNS 260535Z AUTO 23003KT 3SM BR OVC004 M02/M02 A3000 RMK AO2

Aika: 23:50 (05:50 UTC)


TAF: puuttuu

Säähavainnot ja -ennusteet yli 4000 lentoasemalta (METAR- ja TAF-raportit).

Käytössä olevat sääasemat on merkitty karttaan keltaisilla ja punaisilla pisteillä.

Aseta hiiri pisteen päälle nähdäksesi sääaseman nimen.

Klikkaa sitten nähdäksesi säähavainnot ja -ennusteet.

Kartan vaihtaminen: klikkaa mustalla rastilla varustettuja vihreitä pisteitä, niin voit zoomata sisään; viivalla varustettua vihreää pistettä, niin voit zoomata ulos tai vihreitä nuolia, niin pääset viereisille kartoille.


METAR-TAF: